Time;durP1;ratioP1;P1;durP2;ratioP2;P2;SDS_P1;SDS_P2;PMS_P1;PMS_P2;Temp;Humidity;BMP_temperature;BMP_pressure;BME280_temperature;BME280_humidity;BME280_pressure;Samples;Min_cycle;Max_cycle;Signal;HPM_P1;HPM_P2
2021/07/27 00:02:08;;;;;;;;;13.25;12.00;;;;;;;;5081656;27;45516;-68
2021/07/27 00:04:33;;;;;;;;;17.25;17.25;;;;;;;;5079453;27;45428;-68
2021/07/27 00:06:59;;;;;;;;;17.25;17.25;;;;;;;;5079262;27;47046;-68
2021/07/27 00:09:24;;;;;;;;;18.00;16.25;;;;;;;;5078955;27;47078;-68
2021/07/27 00:11:49;;;;;;;;;11.75;10.75;;;;;;;;5075629;27;45402;-69
2021/07/27 00:14:14;;;;;;;;;18.50;15.00;;;;;;;;5080024;27;45432;-68
2021/07/27 00:16:39;;;;;;;;;18.25;16.00;;;;;;;;5077564;27;45465;-68
2021/07/27 00:19:05;;;;;;;;;17.25;16.00;;;;;;;;5079185;27;45464;-68
2021/07/27 00:21:30;;;;;;;;;17.50;16.00;;;;;;;;5079676;27;45535;-68
2021/07/27 00:23:55;;;;;;;;;17.75;16.00;;;;;;;;5075173;27;45317;-69
2021/07/27 00:26:24;;;;;;;;;16.25;16.00;;;;;;;;5080900;27;47385;-73
2021/07/27 00:28:49;;;;;;;;;17.50;16.50;;;;;;;;5078724;27;45459;-72
2021/07/27 00:31:16;;;;;;;;;15.00;14.25;;;;;;;;5078730;27;45448;-72
2021/07/27 00:33:42;;;;;;;;;16.00;14.75;;;;;;;;5079091;27;45279;-72
2021/07/27 00:36:08;;;;;;;;;14.75;14.00;;;;;;;;5075890;27;45586;-72
2021/07/27 00:38:34;;;;;;;;;16.00;14.25;;;;;;;;5078763;27;45218;-71
2021/07/27 00:40:59;;;;;;;;;20.00;15.75;;;;;;;;5112610;27;45310;-71
2021/07/27 00:43:24;;;;;;;;;19.25;15.75;;;;;;;;5078525;27;45499;-72
2021/07/27 00:45:49;;;;;;;;;17.75;16.75;;;;;;;;5078666;27;46332;-71
2021/07/27 00:48:15;;;;;;;;;20.00;16.00;;;;;;;;5077158;27;45741;-72
2021/07/27 00:50:40;;;;;;;;;16.50;14.75;;;;;;;;5077336;27;45354;-71
2021/07/27 00:53:05;;;;;;;;;16.75;15.75;;;;;;;;5078134;27;45572;-71
2021/07/27 00:55:31;;;;;;;;;16.75;14.75;;;;;;;;5077013;27;46164;-72
2021/07/27 00:57:56;;;;;;;;;16.50;14.50;;;;;;;;5078253;27;45390;-74
2021/07/27 01:00:23;;;;;;;;;18.25;15.00;;;;;;;;5077457;27;45398;-72
2021/07/27 01:02:48;;;;;;;;;14.75;14.25;;;;;;;;5075211;27;45462;-71
2021/07/27 01:05:13;;;;;;;;;17.50;15.50;;;;;;;;5080191;27;46330;-71
2021/07/27 01:07:39;;;;;;;;;15.75;14.75;;;;;;;;5078424;27;45598;-71
2021/07/27 01:10:05;;;;;;;;;15.25;13.00;;;;;;;;5078690;27;45457;-71
2021/07/27 01:12:31;;;;;;;;;11.75;11.75;;;;;;;;5078085;27;45418;-71
2021/07/27 01:14:56;;;;;;;;;14.00;14.00;;;;;;;;5074114;27;46925;-71
2021/07/27 01:17:21;;;;;;;;;12.75;11.50;;;;;;;;5080447;27;45449;-72
2021/07/27 01:44:07;;;;;;;;;15.50;15.00;;;;;;;;5079852;27;45498;-71
2021/07/27 01:46:38;;;;;;;;;19.50;16.75;;;;;;;;5077694;27;47158;-71
2021/07/27 01:49:05;;;;;;;;;14.25;12.25;;;;;;;;5077957;27;45460;-71
2021/07/27 01:51:31;;;;;;;;;17.25;15.75;;;;;;;;5077880;27;45445;-71
2021/07/27 01:53:57;;;;;;;;;18.00;15.25;;;;;;;;5057336;28;45553;-71
2021/07/27 01:56:23;;;;;;;;;16.50;14.75;;;;;;;;5079195;27;45373;-72
2021/07/27 01:58:49;;;;;;;;;15.00;13.75;;;;;;;;5078004;27;45460;-71
2021/07/27 02:01:15;;;;;;;;;13.75;13.75;;;;;;;;5077774;27;45522;-72
2021/07/27 02:03:40;;;;;;;;;17.75;16.00;;;;;;;;5076431;27;45500;-72
2021/07/27 02:06:05;;;;;;;;;15.00;13.00;;;;;;;;5074046;27;46332;-72
2021/07/27 02:08:30;;;;;;;;;14.00;14.00;;;;;;;;5078199;27;45495;-71
2021/07/27 02:11:03;;;;;;;;;16.50;15.75;;;;;;;;5076569;27;45351;-71
2021/07/27 02:13:29;;;;;;;;;14.00;14.00;;;;;;;;5075986;27;45441;-72
2021/07/27 02:15:55;;;;;;;;;16.50;15.75;;;;;;;;5077371;27;46525;-71
2021/07/27 02:18:21;;;;;;;;;11.75;11.75;;;;;;;;5075961;27;45571;-72
2021/07/27 02:20:46;;;;;;;;;14.25;13.75;;;;;;;;5074838;27;45599;-72
2021/07/27 02:23:11;;;;;;;;;11.40;8.40;;;;;;;;5077997;27;45438;-72
2021/07/27 02:25:36;;;;;;;;;13.75;12.25;;;;;;;;5077079;27;45388;-72
2021/07/27 02:28:02;;;;;;;;;19.75;17.25;;;;;;;;5077237;27;45504;-72
2021/07/27 02:30:29;;;;;;;;;16.75;15.75;;;;;;;;5077104;27;45551;-72
2021/07/27 02:32:54;;;;;;;;;16.00;14.00;;;;;;;;5072819;27;45282;-72
2021/07/27 02:35:21;;;;;;;;;13.00;12.75;;;;;;;;5079070;27;45932;-72
2021/07/27 02:37:46;;;;;;;;;14.50;14.25;;;;;;;;5077363;27;45302;-72
2021/07/27 02:40:11;;;;;;;;;15.00;15.00;;;;;;;;5079497;27;45381;-72
2021/07/27 02:42:37;;;;;;;;;15.00;14.25;;;;;;;;5080592;27;45463;-72
2021/07/27 02:45:05;;;;;;;;;16.75;16.50;;;;;;;;5075358;27;46702;-72
2021/07/27 02:47:31;;;;;;;;;19.75;16.50;;;;;;;;5081346;27;45407;-72
2021/07/27 02:49:56;;;;;;;;;15.25;14.25;;;;;;;;5079662;27;45479;-72
2021/07/27 02:52:22;;;;;;;;;15.00;14.00;;;;;;;;5078666;27;45409;-72
2021/07/27 02:54:47;;;;;;;;;16.00;14.50;;;;;;;;5079794;27;46337;-72
2021/07/27 02:57:12;;;;;;;;;15.50;14.50;;;;;;;;5077589;27;45294;-72
2021/07/27 02:59:37;;;;;;;;;13.25;13.25;;;;;;;;5079317;27;45307;-72
2021/07/27 03:02:03;;;;;;;;;15.00;15.00;;;;;;;;5081470;27;48088;-72
2021/07/27 03:04:28;;;;;;;;;19.00;14.75;;;;;;;;5080155;27;45427;-71
2021/07/27 03:06:53;;;;;;;;;14.25;14.25;;;;;;;;5080434;27;45373;-72
2021/07/27 03:09:24;;;;;;;;;22.50;18.00;;;;;;;;5078473;27;45380;-72
2021/07/27 03:11:49;;;;;;;;;14.00;14.00;;;;;;;;5076683;27;45682;-72
2021/07/27 03:14:15;;;;;;;;;15.50;13.50;;;;;;;;5082139;27;45895;-72
2021/07/27 03:16:40;;;;;;;;;17.50;15.50;;;;;;;;5080131;27;45567;-72
2021/07/27 03:19:05;;;;;;;;;15.25;14.50;;;;;;;;5080313;27;45348;-72
2021/07/27 03:21:30;;;;;;;;;17.00;14.50;;;;;;;;5080096;27;45475;-74
2021/07/27 03:23:55;;;;;;;;;11.00;11.00;;;;;;;;5075125;27;46150;-73
2021/07/27 03:26:22;;;;;;;;;14.25;13.00;;;;;;;;5082040;27;45755;-72
2021/07/27 03:28:48;;;;;;;;;15.00;12.75;;;;;;;;5078612;27;45505;-72
2021/07/27 03:31:13;;;;;;;;;14.25;12.75;;;;;;;;5078164;27;45476;-72
2021/07/27 03:33:39;;;;;;;;;15.75;14.50;;;;;;;;5079859;27;46388;-72
2021/07/27 03:36:04;;;;;;;;;15.25;13.75;;;;;;;;5076226;27;45308;-72
2021/07/27 03:38:30;;;;;;;;;17.25;14.50;;;;;;;;5080551;27;45405;-71
2021/07/27 03:41:02;;;;;;;;;20.75;15.00;;;;;;;;5080092;27;45615;-71
2021/07/27 03:43:28;;;;;;;;;18.00;16.25;;;;;;;;5078960;27;46205;-72
2021/07/27 03:45:53;;;;;;;;;19.25;15.25;;;;;;;;5078390;27;45284;-72
2021/07/27 03:48:18;;;;;;;;;18.25;15.50;;;;;;;;5091752;27;45457;-72
2021/07/27 03:50:43;;;;;;;;;15.50;13.75;;;;;;;;5076503;27;45553;-71
2021/07/27 03:53:16;;;;;;;;;19.00;17.25;;;;;;;;5081113;27;45438;-71
2021/07/27 03:55:41;;;;;;;;;15.50;13.75;;;;;;;;5079238;27;45590;-72
2021/07/27 03:58:06;;;;;;;;;13.75;13.75;;;;;;;;5079259;27;45335;-72
2021/07/27 04:00:32;;;;;;;;;20.00;17.50;;;;;;;;5079255;27;45560;-71
2021/07/27 04:02:57;;;;;;;;;15.75;14.00;;;;;;;;5075279;27;46035;-72
2021/07/27 04:05:23;;;;;;;;;12.75;11.75;;;;;;;;5081388;27;45458;-72
2021/07/27 04:07:48;;;;;;;;;19.50;18.50;;;;;;;;5077640;27;45438;-72
2021/07/27 04:10:13;;;;;;;;;18.75;16.50;;;;;;;;5077687;27;45255;-71
2021/07/27 04:12:38;;;;;;;;;16.00;15.75;;;;;;;;5077057;27;46243;-72
2021/07/27 04:15:04;;;;;;;;;17.50;14.50;;;;;;;;5074983;27;45295;-72
2021/07/27 04:17:29;;;;;;;;;16.25;15.25;;;;;;;;5080371;27;45298;-72
2021/07/27 04:19:54;;;;;;;;;13.00;13.00;;;;;;;;5079514;27;45270;-72
2021/07/27 04:22:19;;;;;;;;;15.25;13.50;;;;;;;;5078542;27;47051;-72
2021/07/27 04:24:45;;;;;;;;;13.00;12.00;;;;;;;;5078592;27;45241;-72
2021/07/27 04:27:10;;;;;;;;;16.25;15.00;;;;;;;;5075601;27;45416;-72
2021/07/27 04:29:35;;;;;;;;;19.00;15.25;;;;;;;;5077080;27;45475;-72
2021/07/27 04:32:00;;;;;;;;;16.50;15.50;;;;;;;;5079257;27;45397;-72
2021/07/27 04:34:26;;;;;;;;;20.00;18.50;;;;;;;;5078006;27;45487;-71
2021/07/27 04:36:51;;;;;;;;;18.50;16.75;;;;;;;;5078664;27;45473;-72
2021/07/27 04:39:17;;;;;;;;;20.75;18.00;;;;;;;;5076481;27;45447;-72
2021/07/27 04:41:42;;;;;;;;;17.25;17.25;;;;;;;;5074729;27;47067;-72
2021/07/27 04:44:07;;;;;;;;;15.50;14.00;;;;;;;;5080242;27;45322;-72
2021/07/27 04:46:34;;;;;;;;;15.75;14.75;;;;;;;;5081071;27;45271;-72
2021/07/27 04:48:59;;;;;;;;;13.50;12.75;;;;;;;;5084164;27;45628;-70
2021/07/27 04:51:24;;;;;;;;;21.00;17.25;;;;;;;;5076578;27;46916;-72
2021/07/27 04:53:51;;;;;;;;;17.50;12.75;;;;;;;;5074477;27;45319;-72
2021/07/27 04:56:16;;;;;;;;;13.50;13.50;;;;;;;;5079907;27;45407;-75
2021/07/27 04:58:41;;;;;;;;;16.25;15.25;;;;;;;;5077986;27;45428;-72
2021/07/27 05:01:06;;;;;;;;;18.00;16.50;;;;;;;;5077214;27;46154;-69
2021/07/27 05:03:31;;;;;;;;;17.00;14.50;;;;;;;;5077207;27;45411;-69
2021/07/27 05:05:57;;;;;;;;;16.00;14.50;;;;;;;;5072570;28;45424;-70
2021/07/27 05:08:23;;;;;;;;;18.50;15.75;;;;;;;;5080096;27;45309;-70
2021/07/27 05:10:48;;;;;;;;;13.75;13.75;;;;;;;;5077163;27;46222;-71
2021/07/27 05:13:13;;;;;;;;;16.50;15.25;;;;;;;;5076866;27;47783;-69
2021/07/27 05:15:38;;;;;;;;;16.25;14.50;;;;;;;;5077739;27;45435;-71
2021/07/27 05:18:04;;;;;;;;;13.25;11.50;;;;;;;;5073776;27;45426;-69
2021/07/27 05:20:29;;;;;;;;;19.75;16.25;;;;;;;;5078920;27;45888;-69
2021/07/27 05:22:55;;;;;;;;;16.75;13.25;;;;;;;;5078245;27;45394;-69
2021/07/27 05:25:20;;;;;;;;;17.00;15.50;;;;;;;;5076022;27;45724;-71
2021/07/27 05:27:48;;;;;;;;;17.25;15.75;;;;;;;;5076219;27;45449;-71
2021/07/27 05:30:14;;;;;;;;;17.25;15.00;;;;;;;;5075138;27;45462;-71
2021/07/27 05:32:39;;;;;;;;;17.50;16.00;;;;;;;;5075147;27;45426;-71
2021/07/27 05:35:05;;;;;;;;;17.50;15.00;;;;;;;;5078842;27;45324;-70
2021/07/27 05:37:30;;;;;;;;;16.50;14.50;;;;;;;;5076964;27;45303;-70
2021/07/27 05:39:56;;;;;;;;;16.25;16.25;;;;;;;;5076554;27;47575;-70
2021/07/27 05:42:21;;;;;;;;;19.50;18.00;;;;;;;;5075396;27;45270;-70
2021/07/27 05:44:46;;;;;;;;;17.75;15.75;;;;;;;;5074245;27;45643;-71
2021/07/27 05:47:11;;;;;;;;;16.25;13.75;;;;;;;;5078692;27;45227;-71
2021/07/27 05:49:38;;;;;;;;;11.00;10.00;;;;;;;;5076747;27;46275;-70
2021/07/27 05:52:03;;;;;;;;;22.00;18.50;;;;;;;;5076220;27;45545;-71
2021/07/27 05:54:28;;;;;;;;;18.25;15.75;;;;;;;;5076329;27;45458;-69
2021/07/27 05:56:54;;;;;;;;;18.00;16.75;;;;;;;;5071694;27;45291;-71
2021/07/27 05:59:20;;;;;;;;;15.00;13.50;;;;;;;;5079253;27;46219;-71
2021/07/27 06:01:45;;;;;;;;;19.75;18.00;;;;;;;;5076481;27;45310;-70
2021/07/27 06:04:11;;;;;;;;;18.00;15.00;;;;;;;;5074908;27;45420;-70
2021/07/27 06:06:37;;;;;;;;;20.25;17.25;;;;;;;;5074616;27;45464;-69
2021/07/27 06:09:03;;;;;;;;;17.50;17.50;;;;;;;;5072185;27;46344;-69
2021/07/27 06:11:29;;;;;;;;;17.50;15.25;;;;;;;;5077676;27;45492;-70
2021/07/27 06:13:54;;;;;;;;;17.75;14.50;;;;;;;;5079125;27;45451;-70
2021/07/27 06:16:20;;;;;;;;;16.50;16.00;;;;;;;;5079602;27;45488;-70
2021/07/27 06:18:45;;;;;;;;;19.00;17.25;;;;;;;;5079752;27;47517;-70
2021/07/27 06:21:11;;;;;;;;;18.75;17.75;;;;;;;;5077100;27;45460;-71
2021/07/27 06:23:36;;;;;;;;;17.50;15.75;;;;;;;;5079359;27;45252;-71
2021/07/27 06:26:05;;;;;;;;;18.00;13.25;;;;;;;;5080454;27;45532;-72
2021/07/27 06:28:30;;;;;;;;;16.50;16.50;;;;;;;;5078986;27;47125;-70
2021/07/27 06:30:55;;;;;;;;;14.25;13.25;;;;;;;;5077752;27;45572;-71
2021/07/27 06:33:21;;;;;;;;;15.25;13.75;;;;;;;;5078185;27;45546;-71
2021/07/27 06:35:46;;;;;;;;;17.00;17.00;;;;;;;;5075967;27;45291;-71
2021/07/27 06:38:11;;;;;;;;;19.00;18.00;;;;;;;;5079815;27;47033;-70
2021/07/27 06:40:36;;;;;;;;;22.75;18.50;;;;;;;;5078937;27;45538;-72
2021/07/27 06:43:02;;;;;;;;;20.50;15.00;;;;;;;;5077617;27;45359;-71
2021/07/27 06:45:27;;;;;;;;;16.00;16.00;;;;;;;;5076760;27;45503;-71
2021/07/27 06:47:52;;;;;;;;;15.00;14.75;;;;;;;;5075160;27;45445;-71
2021/07/27 06:50:18;;;;;;;;;22.50;15.00;;;;;;;;5079925;27;45319;-72
2021/07/27 06:52:46;;;;;;;;;25.50;18.25;;;;;;;;5078783;27;45515;-72
2021/07/27 06:55:11;;;;;;;;;13.25;13.25;;;;;;;;5079012;27;45527;-72
2021/07/27 06:57:36;;;;;;;;;20.25;16.75;;;;;;;;5078597;27;46302;-72
2021/07/27 07:00:02;;;;;;;;;14.50;14.50;;;;;;;;5074723;27;45364;-72
2021/07/27 07:02:30;;;;;;;;;20.75;16.25;;;;;;;;5080951;27;45476;-72
2021/07/27 07:04:56;;;;;;;;;18.75;18.00;;;;;;;;5079454;27;45488;-73
2021/07/27 07:07:21;;;;;;;;;17.00;12.50;;;;;;;;5078589;27;45370;-71
2021/07/27 07:09:46;;;;;;;;;21.50;20.25;;;;;;;;5078880;27;45380;-71
2021/07/27 07:12:13;;;;;;;;;18.75;16.25;;;;;;;;5076107;27;45443;-71
2021/07/27 07:14:38;;;;;;;;;21.75;21.00;;;;;;;;5077593;27;45405;-71
2021/07/27 07:17:03;;;;;;;;;20.25;18.00;;;;;;;;5079652;27;46962;-71
2021/07/27 07:19:29;;;;;;;;;17.75;12.75;;;;;;;;5078848;27;45422;-73
2021/07/27 07:21:54;;;;;;;;;16.75;14.00;;;;;;;;5077561;27;45389;-71
2021/07/27 07:24:19;;;;;;;;;22.00;19.25;;;;;;;;5075138;27;45519;-71
2021/07/27 07:26:46;;;;;;;;;17.75;16.75;;;;;;;;5076339;27;45477;-72
2021/07/27 07:29:11;;;;;;;;;15.50;14.50;;;;;;;;5080417;27;45504;-72
2021/07/27 07:31:36;;;;;;;;;15.00;15.00;;;;;;;;5078624;27;45417;-71
2021/07/27 07:34:01;;;;;;;;;20.00;17.50;;;;;;;;5078644;27;45319;-71
2021/07/27 07:36:26;;;;;;;;;19.50;17.25;;;;;;;;5077877;27;47139;-72
2021/07/27 07:38:52;;;;;;;;;21.75;19.00;;;;;;;;5074943;27;45326;-71
2021/07/27 07:41:17;;;;;;;;;30.75;24.75;;;;;;;;5080587;27;45689;-71
2021/07/27 07:43:42;;;;;;;;;27.75;24.25;;;;;;;;5078470;27;45462;-72
2021/07/27 07:46:07;;;;;;;;;24.25;17.75;;;;;;;;5078308;27;46260;-73
2021/07/27 07:48:33;;;;;;;;;19.50;19.00;;;;;;;;5078787;27;45465;-73
2021/07/27 07:50:58;;;;;;;;;15.75;15.25;;;;;;;;5074120;27;45377;-71
2021/07/27 07:53:23;;;;;;;;;18.75;16.25;;;;;;;;5080147;27;45328;-72
2021/07/27 07:55:48;;;;;;;;;16.75;15.75;;;;;;;;5077559;27;46062;-71
2021/07/27 07:58:14;;;;;;;;;7.75;7.75;;;;;;;;5078102;27;45327;-71
2021/07/27 08:00:39;;;;;;;;;13.00;13.00;;;;;;;;5077190;27;45542;-72
2021/07/27 08:03:04;;;;;;;;;14.00;14.00;;;;;;;;5073052;27;45285;-72
2021/07/27 08:05:30;;;;;;;;;20.75;19.75;;;;;;;;5079654;27;47424;-71
2021/07/27 08:07:55;;;;;;;;;18.50;13.75;;;;;;;;5078327;27;45395;-71
2021/07/27 08:10:21;;;;;;;;;13.25;13.25;;;;;;;;5077891;27;45378;-72
2021/07/27 08:12:47;;;;;;;;;14.75;12.25;;;;;;;;5077121;27;45516;-71
2021/07/27 08:15:13;;;;;;;;;14.75;11.75;;;;;;;;5075381;27;46382;-71
2021/07/27 08:17:38;;;;;;;;;17.75;16.50;;;;;;;;5076496;27;45354;-72
2021/07/27 08:20:04;;;;;;;;;14.25;12.50;;;;;;;;5079188;27;45434;-72
2021/07/27 08:22:29;;;;;;;;;21.00;18.75;;;;;;;;5078435;27;45555;-72
2021/07/27 08:24:54;;;;;;;;;19.00;18.00;;;;;;;;5077391;27;45369;-72
2021/07/27 08:27:19;;;;;;;;;19.25;17.75;;;;;;;;5076004;27;45354;-72
2021/07/27 08:29:45;;;;;;;;;14.00;14.00;;;;;;;;5075342;27;45377;-72
2021/07/27 08:32:10;;;;;;;;;19.75;14.00;;;;;;;;5079972;27;45336;-72
2021/07/27 08:34:36;;;;;;;;;14.75;13.50;;;;;;;;5077700;27;45532;-72
2021/07/27 08:37:02;;;;;;;;;9.75;9.75;;;;;;;;5077461;27;45835;-72
2021/07/27 08:39:27;;;;;;;;;19.25;16.50;;;;;;;;5075528;27;45355;-72
2021/07/27 08:41:54;;;;;;;;;19.50;17.25;;;;;;;;5073097;27;45599;-72
2021/07/27 08:44:20;;;;;;;;;14.50;13.00;;;;;;;;5078582;27;45331;-71
2021/07/27 08:46:46;;;;;;;;;13.00;12.50;;;;;;;;5077318;27;45467;-72
2021/07/27 08:49:13;;;;;;;;;18.25;14.75;;;;;;;;5077708;27;45546;-72
2021/07/27 08:51:39;;;;;;;;;15.50;15.00;;;;;;;;5077590;27;45365;-71
2021/07/27 08:54:07;;;;;;;;;19.75;17.25;;;;;;;;5073901;27;45377;-72
2021/07/27 08:56:32;;;;;;;;;18.50;15.75;;;;;;;;5077802;27;45333;-70
2021/07/27 09:02:00;;;;;;;;;21.75;19.50;;;;;;;;5076582;27;45446;-70
2021/07/27 09:04:28;;;;;;;;;24.25;21.25;;;;;;;;5077004;27;47375;-71
2021/07/27 09:07:03;;;;;;;;;18.25;16.25;;;;;;;;5076741;27;45421;-71
2021/07/27 09:09:35;;;;;;;;;17.25;15.50;;;;;;;;5076933;27;45227;-69
2021/07/27 09:12:02;;;;;;;;;20.50;16.25;;;;;;;;5057013;27;45462;-70
2021/07/27 09:14:29;;;;;;;;;14.25;14.25;;;;;;;;5078766;27;46449;-71
2021/07/27 09:16:54;;;;;;;;;22.00;19.00;;;;;;;;5077509;27;45482;-70
2021/07/27 09:19:20;;;;;;;;;17.00;15.00;;;;;;;;5075203;27;45255;-70
2021/07/27 09:21:46;;;;;;;;;16.75;16.00;;;;;;;;5075780;27;45490;-70
2021/07/27 09:24:20;;;;;;;;;19.50;18.00;;;;;;;;5074172;27;46493;-70
2021/07/27 09:27:05;;;;;;;;;18.00;18.00;;;;;;;;5072356;27;45480;-70
2021/07/27 09:29:31;;;;;;;;;16.50;16.50;;;;;;;;5086828;27;45377;-71
2021/07/27 09:32:00;;;;;;;;;13.50;13.00;;;;;;;;5077353;27;45395;-70
2021/07/27 09:34:28;;;;;;;;;18.50;17.25;;;;;;;;5076974;27;46238;-69
2021/07/27 09:37:01;;;;;;;;;14.75;14.00;;;;;;;;5077294;27;45406;-69
2021/07/27 09:39:26;;;;;;;;;19.00;15.25;;;;;;;;5075452;27;45571;-71
2021/07/27 09:42:05;;;;;;;;;16.75;15.00;;;;;;;;5073387;27;45207;-69
2021/07/27 09:44:31;;;;;;;;;18.50;16.50;;;;;;;;5086654;27;45608;-71
2021/07/27 09:46:57;;;;;;;;;17.75;16.75;;;;;;;;5076849;27;45353;-70
2021/07/27 09:49:23;;;;;;;;;14.75;14.75;;;;;;;;5075762;27;45385;-71
2021/07/27 09:51:49;;;;;;;;;11.00;9.25;;;;;;;;5076110;27;45484;-70
2021/07/27 09:54:14;;;;;;;;;16.00;14.00;;;;;;;;5073390;27;45834;-71
2021/07/27 09:56:39;;;;;;;;;13.75;13.25;;;;;;;;5075468;27;45883;-71
2021/07/27 09:59:05;;;;;;;;;15.00;13.00;;;;;;;;5076335;27;45231;-71
2021/07/27 10:01:30;;;;;;;;;15.25;15.25;;;;;;;;5075288;27;45501;-70
2021/07/27 10:04:00;;;;;;;;;17.25;15.50;;;;;;;;5076513;27;45261;-73
2021/07/27 10:06:26;;;;;;;;;16.50;16.00;;;;;;;;5075309;27;45541;-71
2021/07/27 10:08:54;;;;;;;;;19.00;16.50;;;;;;;;5072409;27;45449;-71
2021/07/27 10:11:20;;;;;;;;;15.50;15.50;;;;;;;;5078370;27;46027;-71
2021/07/27 10:13:45;;;;;;;;;20.25;17.00;;;;;;;;5075999;27;45535;-70
2021/07/27 10:16:21;;;;;;;;;19.50;17.25;;;;;;;;5075709;27;45304;-70
2021/07/27 10:18:46;;;;;;;;;12.00;11.25;;;;;;;;5076434;27;45397;-71
2021/07/27 10:21:17;;;;;;;;;18.25;18.25;;;;;;;;5073174;27;45220;-70
2021/07/27 10:23:42;;;;;;;;;16.25;15.25;;;;;;;;5074095;27;46109;-70
2021/07/27 10:26:07;;;;;;;;;12.00;11.00;;;;;;;;5077082;27;45382;-70
2021/07/27 10:28:33;;;;;;;;;13.75;11.75;;;;;;;;5076028;27;45536;-71
2021/07/27 10:31:05;;;;;;;;;19.00;16.75;;;;;;;;5074612;27;45386;-72
2021/07/27 10:33:31;;;;;;;;;17.00;14.25;;;;;;;;5075226;27;46428;-70
2021/07/27 10:35:56;;;;;;;;;14.50;12.00;;;;;;;;5070248;27;45464;-70
2021/07/27 10:38:22;;;;;;;;;12.00;11.75;;;;;;;;5077192;27;45338;-70
2021/07/27 10:40:48;;;;;;;;;15.00;11.25;;;;;;;;5074293;27;45516;-71
2021/07/27 10:43:25;;;;;;;;;14.25;13.50;;;;;;;;5075884;27;45357;-71
2021/07/27 10:45:57;;;;;;;;;13.50;11.25;;;;;;;;5075801;27;45441;-69
2021/07/27 10:48:31;;;;;;;;;14.75;14.50;;;;;;;;5074619;27;45349;-70
2021/07/27 10:50:58;;;;;;;;;17.25;14.75;;;;;;;;5071353;27;45370;-70
2021/07/27 10:53:24;;;;;;;;;11.25;9.75;;;;;;;;5076811;27;46151;-71
2021/07/27 10:55:51;;;;;;;;;16.50;15.75;;;;;;;;5074594;27;45424;-71
2021/07/27 10:58:17;;;;;;;;;13.00;10.00;;;;;;;;5076308;27;45488;-71
2021/07/27 11:00:42;;;;;;;;;14.25;13.25;;;;;;;;5077540;27;45437;-71
2021/07/27 11:03:07;;;;;;;;;12.25;11.50;;;;;;;;5075250;27;45425;-70
2021/07/27 11:05:32;;;;;;;;;15.25;14.50;;;;;;;;5079465;27;45413;-71
2021/07/27 11:07:58;;;;;;;;;17.75;15.75;;;;;;;;5077952;27;45350;-70
2021/07/27 11:10:24;;;;;;;;;15.00;14.25;;;;;;;;5079348;27;45412;-70
2021/07/27 11:12:50;;;;;;;;;15.75;15.25;;;;;;;;5078681;27;45303;-71
2021/07/27 11:15:20;;;;;;;;;17.50;15.00;;;;;;;;5074625;27;45457;-70
2021/07/27 11:17:49;;;;;;;;;9.50;7.75;;;;;;;;5076685;27;45324;-72
2021/07/27 11:20:20;;;;;;;;;14.00;12.50;;;;;;;;5079397;27;45434;-70
2021/07/27 11:22:52;;;;;;;;;11.25;9.50;;;;;;;;5078136;27;47069;-70
2021/07/27 11:25:21;;;;;;;;;12.00;10.50;;;;;;;;5078623;27;45478;-71
2021/07/27 11:27:47;;;;;;;;;12.00;8.25;;;;;;;;5077454;27;45670;-70
2021/07/27 11:30:13;;;;;;;;;12.00;12.00;;;;;;;;5075705;27;45551;-70
2021/07/27 11:32:38;;;;;;;;;13.00;10.75;;;;;;;;5077258;27;45541;-71
2021/07/27 11:35:03;;;;;;;;;23.00;20.00;;;;;;;;5079206;27;45448;-71
2021/07/27 11:37:29;;;;;;;;;18.50;14.50;;;;;;;;5078451;27;45279;-71
2021/07/27 11:39:55;;;;;;;;;16.75;15.50;;;;;;;;5078410;27;45605;-69
2021/07/27 11:42:27;;;;;;;;;18.25;15.00;;;;;;;;5076517;27;46397;-70
2021/07/27 11:44:52;;;;;;;;;14.75;14.75;;;;;;;;5074785;27;45358;-70
2021/07/27 11:47:18;;;;;;;;;16.25;15.25;;;;;;;;5080774;27;45513;-71
2021/07/27 11:49:52;;;;;;;;;15.75;11.25;;;;;;;;5078221;27;45442;-72
2021/07/27 11:52:24;;;;;;;;;12.00;11.00;;;;;;;;5076767;27;47252;-70
2021/07/27 11:54:58;;;;;;;;;14.50;14.00;;;;;;;;5076694;27;45527;-71
2021/07/27 11:57:23;;;;;;;;;13.50;12.50;;;;;;;;5075513;27;45498;-71
2021/07/27 11:59:50;;;;;;;;;14.50;10.75;;;;;;;;5075290;27;45343;-69
2021/07/27 12:02:15;;;;;;;;;20.50;16.75;;;;;;;;5080446;27;46635;-71
2021/07/27 12:04:41;;;;;;;;;13.50;13.00;;;;;;;;5078069;27;45633;-71
2021/07/27 12:07:06;;;;;;;;;10.75;10.75;;;;;;;;5077546;27;45390;-69
2021/07/27 12:09:31;;;;;;;;;13.25;13.25;;;;;;;;5078157;27;45511;-70
2021/07/27 12:11:56;;;;;;;;;14.50;13.50;;;;;;;;5073158;27;45635;-70
2021/07/27 12:14:22;;;;;;;;;13.25;11.00;;;;;;;;5079710;27;45283;-70
2021/07/27 12:16:50;;;;;;;;;10.75;10.75;;;;;;;;5077806;27;45308;-70
2021/07/27 12:19:15;;;;;;;;;14.75;14.50;;;;;;;;5077610;27;45394;-69
2021/07/27 12:21:40;;;;;;;;;12.75;12.25;;;;;;;;5077445;27;45441;-70
2021/07/27 12:24:06;;;;;;;;;12.50;12.50;;;;;;;;5073910;27;45492;-70
2021/07/27 12:26:34;;;;;;;;;17.25;12.25;;;;;;;;5078163;27;45519;-70
2021/07/27 12:29:00;;;;;;;;;14.50;13.25;;;;;;;;5076800;27;45393;-69
2021/07/27 12:31:25;;;;;;;;;13.75;13.00;;;;;;;;5077188;27;45402;-71
2021/07/27 12:33:50;;;;;;;;;14.00;13.00;;;;;;;;5076058;27;45532;-70
2021/07/27 12:36:15;;;;;;;;;19.25;16.25;;;;;;;;5072579;27;45421;-70
2021/07/27 12:38:41;;;;;;;;;15.25;14.75;;;;;;;;5075630;27;45330;-71
2021/07/27 12:41:06;;;;;;;;;15.50;15.50;;;;;;;;5078976;27;45313;-70
2021/07/27 12:43:31;;;;;;;;;11.75;11.00;;;;;;;;5077134;27;45324;-70
2021/07/27 12:45:57;;;;;;;;;12.25;12.25;;;;;;;;5076381;27;45365;-71
2021/07/27 12:48:22;;;;;;;;;14.75;13.50;;;;;;;;5075357;27;45440;-71
2021/07/27 12:50:47;;;;;;;;;16.25;16.00;;;;;;;;5073499;27;47108;-71
2021/07/27 12:53:13;;;;;;;;;15.75;12.75;;;;;;;;5079150;27;45500;-70
2021/07/27 12:55:38;;;;;;;;;8.75;8.25;;;;;;;;5077065;27;45425;-70
2021/07/27 12:58:03;;;;;;;;;10.75;10.50;;;;;;;;5077152;27;45439;-70
2021/07/27 13:00:30;;;;;;;;;12.75;11.25;;;;;;;;5076704;27;45813;-71
2021/07/27 13:02:55;;;;;;;;;13.25;12.75;;;;;;;;5072647;27;45353;-71
2021/07/27 13:05:20;;;;;;;;;13.50;12.00;;;;;;;;5078643;27;45412;-70
2021/07/27 13:07:46;;;;;;;;;12.75;11.75;;;;;;;;5075759;27;45483;-70
2021/07/27 13:10:13;;;;;;;;;12.00;12.00;;;;;;;;5075860;27;46233;-70
2021/07/27 13:12:38;;;;;;;;;14.25;13.00;;;;;;;;5074449;27;45443;-71
2021/07/27 13:15:04;;;;;;;;;15.50;12.75;;;;;;;;5071320;27;45663;-72
2021/07/27 13:17:29;;;;;;;;;11.50;10.75;;;;;;;;5077772;27;45434;-71
2021/07/27 13:19:54;;;;;;;;;7.75;7.00;;;;;;;;5076876;27;45386;-71
2021/07/27 13:22:19;;;;;;;;;8.33;7.33;;;;;;;;5075628;27;45714;-70
2021/07/27 13:24:45;;;;;;;;;6.67;6.33;;;;;;;;5076315;27;45495;-72
2021/07/27 13:27:10;;;;;;;;;13.75;11.00;;;;;;;;5072901;27;45572;-71
2021/07/27 13:29:38;;;;;;;;;9.50;8.25;;;;;;;;5076043;27;47243;-72
2021/07/27 13:32:06;;;;;;;;;12.00;12.00;;;;;;;;5077242;27;45262;-71
2021/07/27 13:34:32;;;;;;;;;6.67;6.67;;;;;;;;5076544;27;45358;-71
2021/07/27 13:36:57;;;;;;;;;8.00;6.00;;;;;;;;5076720;27;45943;-72
2021/07/27 13:39:22;;;;;;;;;9.00;7.33;;;;;;;;5075163;27;47699;-70
2021/07/27 13:41:47;;;;;;;;;7.67;6.33;;;;;;;;5073711;27;45425;-70
2021/07/27 13:44:14;;;;;;;;;6.00;6.00;;;;;;;;5078310;27;45287;-72
2021/07/27 13:46:39;;;;;;;;;7.00;7.00;;;;;;;;5073388;27;45302;-73
2021/07/27 13:49:04;;;;;;;;;7.00;6.00;;;;;;;;5076150;27;47007;-71
2021/07/27 13:51:29;;;;;;;;;8.33;7.00;;;;;;;;5075068;27;45358;-71
2021/07/27 13:53:57;;;;;;;;;7.00;6.33;;;;;;;;5071791;27;45270;-71
2021/07/27 13:56:23;;;;;;;;;6.33;6.00;;;;;;;;5078024;27;45350;-71
2021/07/27 13:58:48;;;;;;;;;7.33;6.00;;;;;;;;5076110;27;46134;-70
2021/07/27 14:01:13;;;;;;;;;6.33;6.33;;;;;;;;5076158;27;45330;-71
2021/07/27 14:03:39;;;;;;;;;7.33;7.33;;;;;;;;5076580;27;45382;-71
2021/07/27 14:06:04;;;;;;;;;8.00;6.00;;;;;;;;5071852;27;45454;-72
2021/07/27 14:08:29;;;;;;;;;7.00;7.00;;;;;;;;5089824;27;46629;-73
2021/07/27 14:10:55;;;;;;;;;8.00;8.00;;;;;;;;5076220;27;45330;-71
2021/07/27 14:13:20;;;;;;;;;7.67;7.67;;;;;;;;5076183;27;45485;-72
2021/07/27 14:15:45;;;;;;;;;13.25;9.00;;;;;;;;5075746;27;45436;-71
2021/07/27 14:18:11;;;;;;;;;8.00;8.00;;;;;;;;5073459;27;46104;-72
2021/07/27 14:20:36;;;;;;;;;10.67;9.67;;;;;;;;5075694;27;45435;-72
2021/07/27 14:23:01;;;;;;;;;7.75;7.00;;;;;;;;5077290;27;45476;-72
2021/07/27 14:25:27;;;;;;;;;10.25;9.75;;;;;;;;5075308;27;45496;-72
2021/07/27 14:27:53;;;;;;;;;10.25;9.25;;;;;;;;5075454;27;47171;-71
2021/07/27 14:30:18;;;;;;;;;12.00;11.75;;;;;;;;5071626;27;45906;-71
2021/07/27 14:32:43;;;;;;;;;12.75;12.75;;;;;;;;5074199;27;45345;-72
2021/07/27 14:35:09;;;;;;;;;10.75;10.75;;;;;;;;5078391;27;45445;-71
2021/07/27 14:37:34;;;;;;;;;9.75;7.75;;;;;;;;5079046;27;46190;-71
2021/07/27 14:39:59;;;;;;;;;14.25;12.00;;;;;;;;5078949;27;45325;-71